createdAt,value
2019-03-23T00:00:44.970Z,136.90
2019-03-23T00:03:16.968Z,134.65
2019-03-23T00:05:47.495Z,132.75
2019-03-23T00:08:16.891Z,135.12
2019-03-23T00:10:46.425Z,140.40
2019-03-23T00:13:15.866Z,128.02
2019-03-23T00:15:45.304Z,129.12
2019-03-23T00:18:14.798Z,136.97
2019-03-23T00:20:44.223Z,132.20
2019-03-23T00:23:13.684Z,131.20
2019-03-23T00:25:43.861Z,128.10
2019-03-23T00:28:15.100Z,133.12
2019-03-23T00:30:44.619Z,130.15
2019-03-23T00:33:14.331Z,135.52
2019-03-23T00:35:43.707Z,133.32
2019-03-23T00:38:13.136Z,138.22
2019-03-23T00:40:42.546Z,138.22
2019-03-23T00:43:12.090Z,130.95
2019-03-23T00:45:41.520Z,135.68
2019-03-23T00:48:10.879Z,133.95
2019-03-23T00:50:40.234Z,142.57
2019-03-23T00:53:09.584Z,135.93
2019-03-23T00:55:40.358Z,132.35
2019-03-23T00:58:09.735Z,124.22
2019-03-23T01:00:41.827Z,132.32
2019-03-23T01:03:11.199Z,135.48
2019-03-23T01:05:40.532Z,134.57
2019-03-23T01:08:09.894Z,133.72
2019-03-23T01:10:39.644Z,132.00
2019-03-23T01:13:09.063Z,130.67
2019-03-23T01:15:39.514Z,128.62
2019-03-23T01:18:08.879Z,129.80
2019-03-23T01:20:38.245Z,129.42
2019-03-23T01:23:07.689Z,126.97
2019-03-23T01:25:37.116Z,135.25
2019-03-23T01:28:06.476Z,131.80
2019-03-23T01:30:35.827Z,138.95
2019-03-23T01:33:05.299Z,138.40
2019-03-23T01:35:34.726Z,132.25
2019-03-23T01:38:04.076Z,137.37
2019-03-23T01:40:33.449Z,140.47
2019-03-23T01:43:02.925Z,133.95
2019-03-23T01:45:32.273Z,142.20
2019-03-23T01:48:01.677Z,135.78
2019-03-23T01:50:31.016Z,138.47
2019-03-23T01:53:00.911Z,142.57
2019-03-23T01:55:30.311Z,139.22
2019-03-23T01:57:59.670Z,136.60
2019-03-23T02:00:29.016Z,136.25
2019-03-23T02:02:58.374Z,136.05
2019-03-23T02:05:27.751Z,138.70
2019-03-23T02:07:57.092Z,138.97
2019-03-23T02:10:26.435Z,140.05
2019-03-23T02:12:55.779Z,136.90
2019-03-23T02:15:25.228Z,135.12
2019-03-23T02:17:54.751Z,134.67
2019-03-23T02:20:24.205Z,134.05
2019-03-23T02:22:53.535Z,121.28
2019-03-23T02:25:22.982Z,123.10
2019-03-23T02:27:52.323Z,123.10
2019-03-23T02:30:21.665Z,136.85
2019-03-23T02:32:51.020Z,121.80
2019-03-23T02:35:20.352Z,119.90
2019-03-23T02:37:49.716Z,121.17
2019-03-23T02:40:19.145Z,118.42
2019-03-23T02:42:48.555Z,129.87
2019-03-23T02:45:17.906Z,117.85
2019-03-23T02:47:47.244Z,124.12
2019-03-23T02:50:16.595Z,127.07
2019-03-23T02:52:46.065Z,130.35
2019-03-23T02:55:15.440Z,125.58
2019-03-23T02:57:44.840Z,130.20
2019-03-23T03:00:16.307Z,121.28
2019-03-23T03:02:45.648Z,145.90
2019-03-23T03:05:15.099Z,160.43
2019-03-23T03:07:44.465Z,132.95
2019-03-23T03:10:16.960Z,153.12
2019-03-23T03:12:46.311Z,133.65
2019-03-23T03:15:15.743Z,137.65
2019-03-23T03:17:45.131Z,153.42
2019-03-23T03:20:14.493Z,147.93
2019-03-23T03:22:43.915Z,157.35
2019-03-23T03:25:13.883Z,136.57
2019-03-23T03:27:43.316Z,139.90
2019-03-23T03:30:12.976Z,189.70
2019-03-23T03:32:42.469Z,156.05
2019-03-23T03:35:12.001Z,159.87
2019-03-23T03:37:55.431Z,181.37
2019-03-23T03:40:12.347Z,186.25
2019-03-23T03:42:41.694Z,190.55
2019-03-23T03:45:14.169Z,166.28
2019-03-23T03:47:43.568Z,175.72
2019-03-23T03:50:14.478Z,162.65
2019-03-23T03:52:45.096Z,157.47
2019-03-23T03:55:14.516Z,156.95
2019-03-23T03:57:43.917Z,159.60
2019-03-23T04:00:13.501Z,141.55
2019-03-23T04:02:42.836Z,157.97
2019-03-23T04:05:12.204Z,172.95
2019-03-23T04:07:41.583Z,135.50
2019-03-23T04:10:11.360Z,149.32
2019-03-23T04:12:40.796Z,151.70
2019-03-23T04:15:11.511Z,143.57
2019-03-23T04:17:40.847Z,167.55
2019-03-23T04:20:11.329Z,130.85
2019-03-23T04:22:40.687Z,182.15
2019-03-23T04:25:11.267Z,177.53
2019-03-23T04:27:40.627Z,182.02
2019-03-23T04:30:12.065Z,153.72
2019-03-23T04:32:41.505Z,174.00
2019-03-23T04:35:11.074Z,132.00
2019-03-23T04:37:40.418Z,226.30
2019-03-23T04:40:11.969Z,150.65
2019-03-23T04:42:41.455Z,158.20
2019-03-23T04:45:11.406Z,203.55
2019-03-23T04:47:40.745Z,147.22
2019-03-23T04:50:11.507Z,142.45
2019-03-23T04:52:41.099Z,182.25
2019-03-23T04:55:12.753Z,154.25
2019-03-23T04:57:42.247Z,163.32
2019-03-23T05:00:19.032Z,144.05
2019-03-23T05:02:48.421Z,163.68
2019-03-23T05:05:17.842Z,157.88
2019-03-23T05:07:47.175Z,108.60
2019-03-23T05:10:16.512Z,120.50
2019-03-23T05:12:46.931Z,115.15
2019-03-23T05:15:16.340Z,129.80
2019-03-23T05:17:45.847Z,141.30
2019-03-23T05:20:29.835Z,128.55
2019-03-23T05:22:59.503Z,133.05
2019-03-23T05:25:29.941Z,122.90
2019-03-23T05:27:59.280Z,107.70
2019-03-23T05:30:28.692Z,119.42
2019-03-23T05:32:58.048Z,120.65
2019-03-23T05:35:27.479Z,109.45
2019-03-23T05:37:56.819Z,116.60
2019-03-23T05:40:26.151Z,118.53
2019-03-23T05:42:55.515Z,115.90
2019-03-23T05:45:24.846Z,114.60
2019-03-23T05:47:54.184Z,113.95
2019-03-23T05:50:23.652Z,117.25
2019-03-23T05:52:53.073Z,115.72
2019-03-23T05:55:22.443Z,117.82
2019-03-23T05:57:51.831Z,117.97
2019-03-23T06:00:21.245Z,116.28
2019-03-23T06:02:50.585Z,106.12
2019-03-23T06:05:19.951Z,100.53
2019-03-23T06:07:49.280Z,103.47
2019-03-23T06:10:18.698Z,92.97
2019-03-23T06:12:48.111Z,101.07
2019-03-23T06:15:17.452Z,97.55
2019-03-23T06:17:46.825Z,103.10
2019-03-23T06:20:16.166Z,100.07
2019-03-23T06:22:45.532Z,90.12
2019-03-23T06:25:14.949Z,92.05
2019-03-23T06:27:44.334Z,83.90
2019-03-23T06:30:13.772Z,78.97
2019-03-23T06:32:44.346Z,84.62
2019-03-23T06:35:13.658Z,82.65
2019-03-23T06:37:42.978Z,81.20
2019-03-23T06:40:12.667Z,82.72
2019-03-23T06:42:42.025Z,79.67
2019-03-23T06:45:12.939Z,84.72
2019-03-23T06:47:42.339Z,84.80
2019-03-23T06:50:12.663Z,83.62
2019-03-23T06:52:42.030Z,81.47
2019-03-23T06:55:11.535Z,80.07
2019-03-23T06:57:40.891Z,80.90
2019-03-23T07:00:13.427Z,82.10
2019-03-23T07:02:42.767Z,77.00
2019-03-23T07:05:13.079Z,81.35
2019-03-23T07:07:42.561Z,78.52
2019-03-23T07:10:13.578Z,73.72
2019-03-23T07:12:43.038Z,73.75
2019-03-23T07:15:20.360Z,75.85
2019-03-23T07:17:48.009Z,73.67
2019-03-23T07:20:17.615Z,72.53
2019-03-23T07:22:46.970Z,68.85
2019-03-23T07:25:16.326Z,76.47
2019-03-23T07:27:45.663Z,69.53
2019-03-23T07:30:18.487Z,74.00
2019-03-23T07:32:47.830Z,73.92
2019-03-23T07:35:17.570Z,68.28
2019-03-23T07:37:46.914Z,71.22
2019-03-23T07:40:16.305Z,68.75
2019-03-23T07:42:46.711Z,69.70
2019-03-23T07:45:16.971Z,68.50
2019-03-23T07:47:46.318Z,66.80
2019-03-23T07:50:16.104Z,67.53
2019-03-23T07:52:45.613Z,63.95
2019-03-23T07:55:16.261Z,70.25
2019-03-23T07:57:46.555Z,63.02
2019-03-23T08:00:21.032Z,63.83
2019-03-23T08:05:18.971Z,65.85
2019-03-23T08:07:48.400Z,69.70
2019-03-23T08:10:31.239Z,67.90
2019-03-23T08:13:00.939Z,68.50
2019-03-23T08:15:30.686Z,63.05
2019-03-23T08:18:00.128Z,67.80
2019-03-23T08:20:29.548Z,65.05
2019-03-23T08:22:58.888Z,62.95
2019-03-23T08:25:28.292Z,70.67
2019-03-23T08:27:57.651Z,68.37
2019-03-23T08:30:27.023Z,66.90
2019-03-23T08:32:56.395Z,63.30
2019-03-23T08:35:25.744Z,70.35
2019-03-23T08:37:59.129Z,73.28
2019-03-23T08:40:31.120Z,74.25
2019-03-23T08:43:02.622Z,71.05
2019-03-23T08:45:32.046Z,67.78
2019-03-23T08:48:01.399Z,71.15
2019-03-23T08:50:30.754Z,71.37
2019-03-23T08:53:00.679Z,71.95
2019-03-23T08:55:30.009Z,73.20
2019-03-23T08:57:59.361Z,68.33
2019-03-23T09:00:28.687Z,67.25
2019-03-23T09:02:58.151Z,67.90
2019-03-23T09:05:27.471Z,67.22
2019-03-23T09:07:56.892Z,67.97
2019-03-23T09:10:27.683Z,63.85
2019-03-23T09:12:58.402Z,66.50
2019-03-23T09:15:27.802Z,65.30
2019-03-23T09:17:57.232Z,67.75
2019-03-23T09:20:29.693Z,68.87
2019-03-23T09:23:00.608Z,67.35
2019-03-23T09:25:31.844Z,67.67
2019-03-23T09:28:01.980Z,71.30
2019-03-23T09:30:31.363Z,68.80
2019-03-23T09:33:00.745Z,71.77
2019-03-23T09:35:30.130Z,69.62
2019-03-23T09:37:59.491Z,69.00
2019-03-23T09:40:28.891Z,63.63
2019-03-23T09:42:58.334Z,68.97
2019-03-23T09:45:27.706Z,63.87
2019-03-23T09:47:57.116Z,65.08
2019-03-23T09:50:26.438Z,64.35
2019-03-23T09:52:56.036Z,66.00
2019-03-23T09:55:25.437Z,66.57
2019-03-23T09:57:54.827Z,67.50
2019-03-23T10:00:24.308Z,66.53
2019-03-23T10:02:53.815Z,64.67
2019-03-23T10:05:24.239Z,63.55
2019-03-23T10:07:53.555Z,60.03
2019-03-23T10:10:22.976Z,63.10
2019-03-23T10:12:53.312Z,58.02
2019-03-23T10:15:22.777Z,60.48
2019-03-23T10:17:52.135Z,62.35
2019-03-23T10:20:21.642Z,60.67
2019-03-23T10:22:52.302Z,62.00
2019-03-23T10:25:21.714Z,60.98
2019-03-23T10:27:51.306Z,54.77
2019-03-23T10:30:20.794Z,61.85
2019-03-23T10:32:50.164Z,60.00
2019-03-23T10:35:19.995Z,54.83
2019-03-23T10:37:49.357Z,55.70
2019-03-23T10:40:20.511Z,58.55
2019-03-23T10:42:49.939Z,56.45
2019-03-23T10:45:19.366Z,56.55
2019-03-23T10:47:49.028Z,56.15
2019-03-23T10:50:18.656Z,54.75
2019-03-23T10:52:48.132Z,57.62
2019-03-23T10:55:17.679Z,56.63
2019-03-23T10:57:47.333Z,55.80
2019-03-23T11:00:16.880Z,55.98
2019-03-23T11:02:46.382Z,57.73
2019-03-23T11:05:15.792Z,57.45
2019-03-23T11:07:45.427Z,56.55
2019-03-23T11:10:15.031Z,58.65
2019-03-23T11:12:44.546Z,59.95
2019-03-23T11:15:14.231Z,62.95
2019-03-23T11:17:43.701Z,59.53
2019-03-23T11:20:13.853Z,61.05
2019-03-23T11:22:44.665Z,63.75
2019-03-23T11:25:14.241Z,64.65
2019-03-23T11:27:43.722Z,64.60
2019-03-23T11:30:14.290Z,67.12
2019-03-23T11:32:43.694Z,67.80
2019-03-23T11:35:13.584Z,68.00
2019-03-23T11:37:43.325Z,73.17
2019-03-23T11:40:13.998Z,70.47
2019-03-23T11:42:49.834Z,73.72
2019-03-23T11:45:14.524Z,73.28
2019-03-23T11:47:43.895Z,69.95
2019-03-23T11:50:13.235Z,70.57
2019-03-23T11:52:42.636Z,72.37
2019-03-23T11:55:12.042Z,72.55
2019-03-23T11:57:42.753Z,77.50
2019-03-23T12:00:14.570Z,77.08
2019-03-23T12:02:43.971Z,79.05
2019-03-23T12:05:14.714Z,79.70
2019-03-23T12:07:44.390Z,83.22
2019-03-23T12:10:14.388Z,78.57
2019-03-23T12:12:43.706Z,79.90
2019-03-23T12:15:14.090Z,75.97
2019-03-23T12:17:43.430Z,75.95
2019-03-23T12:20:13.025Z,73.07
2019-03-23T12:22:42.718Z,72.47
2019-03-23T12:25:12.309Z,72.00
2019-03-23T12:27:41.729Z,77.47
2019-03-23T12:30:16.357Z,69.42
2019-03-23T12:32:45.706Z,74.17
2019-03-23T12:35:15.389Z,77.65
2019-03-23T12:37:44.729Z,75.97
2019-03-23T12:40:17.399Z,74.42
2019-03-23T12:42:46.723Z,78.62
2019-03-23T12:45:16.221Z,77.67
2019-03-23T12:47:45.582Z,77.47
2019-03-23T12:50:14.998Z,80.40
2019-03-23T12:52:44.407Z,79.10
2019-03-23T12:55:13.760Z,84.47
2019-03-23T12:57:43.188Z,80.55
2019-03-23T13:00:14.913Z,77.90
2019-03-23T13:02:44.362Z,81.87
2019-03-23T13:05:14.050Z,83.67
2019-03-23T13:07:43.476Z,93.50
2019-03-23T13:10:15.112Z,83.97
2019-03-23T13:12:44.462Z,84.62
2019-03-23T13:15:15.731Z,85.17
2019-03-23T13:17:46.246Z,86.28
2019-03-23T13:20:16.899Z,84.50
2019-03-23T13:22:46.326Z,84.40
2019-03-23T13:25:15.735Z,79.90
2019-03-23T13:27:45.102Z,76.50
2019-03-23T13:30:19.229Z,71.92
2019-03-23T13:32:48.630Z,78.15
2019-03-23T13:35:17.985Z,71.87
2019-03-23T13:37:47.462Z,74.37
2019-03-23T13:40:16.805Z,72.30
2019-03-23T13:42:46.257Z,72.27
2019-03-23T13:45:19.032Z,71.95
2019-03-23T13:47:48.456Z,70.25
2019-03-23T13:50:20.971Z,69.80
2019-03-23T13:52:50.358Z,63.85
2019-03-23T13:55:27.424Z,65.50
2019-03-23T13:57:58.336Z,61.83
2019-03-23T14:00:27.676Z,64.07
2019-03-23T14:02:57.023Z,60.15
2019-03-23T14:05:26.447Z,57.85
2019-03-23T14:07:55.785Z,56.92
2019-03-23T14:10:25.114Z,54.23
2019-03-23T14:12:54.482Z,53.92
2019-03-23T14:15:23.837Z,54.33
2019-03-23T14:17:53.227Z,53.58
2019-03-23T14:20:22.603Z,54.80
2019-03-23T14:22:52.006Z,52.48
2019-03-23T14:25:21.434Z,55.70
2019-03-23T14:27:50.769Z,51.33
2019-03-23T14:30:20.189Z,48.25
2019-03-23T14:32:49.604Z,51.55
2019-03-23T14:35:19.316Z,49.90
2019-03-23T14:37:48.675Z,51.00
2019-03-23T14:40:18.007Z,47.43
2019-03-23T14:42:47.447Z,48.92
2019-03-23T14:45:16.822Z,45.35
2019-03-23T14:47:46.208Z,47.65
2019-03-23T14:50:15.546Z,46.25
2019-03-23T14:52:45.683Z,47.93
2019-03-23T14:55:15.039Z,46.35
2019-03-23T14:57:45.503Z,48.87
2019-03-23T15:00:17.926Z,46.60
2019-03-23T15:02:47.263Z,50.85
2019-03-23T15:05:16.595Z,53.45
2019-03-23T15:07:46.364Z,54.40
2019-03-23T15:10:15.785Z,51.35
2019-03-23T15:12:45.191Z,56.53
2019-03-23T15:15:14.529Z,56.30
2019-03-23T15:17:48.989Z,53.98
2019-03-23T15:20:16.382Z,52.27
2019-03-23T15:22:45.728Z,51.77
2019-03-23T15:25:16.505Z,51.90
2019-03-23T15:27:45.883Z,46.45
2019-03-23T15:30:15.290Z,45.52
2019-03-23T15:32:44.635Z,46.28
2019-03-23T15:35:13.999Z,48.13
2019-03-23T15:37:43.324Z,44.25
2019-03-23T15:40:12.677Z,39.13
2019-03-23T15:42:41.995Z,39.25
2019-03-23T15:45:11.689Z,39.60
2019-03-23T15:47:41.062Z,36.20
2019-03-23T15:50:11.618Z,40.55
2019-03-23T15:52:43.949Z,37.20
2019-03-23T15:55:14.433Z,36.60
2019-03-23T15:57:43.865Z,32.95
2019-03-23T16:00:14.056Z,37.88
2019-03-23T16:02:43.447Z,41.58
2019-03-23T16:05:13.011Z,36.28
2019-03-23T16:07:42.342Z,33.25
2019-03-23T16:10:11.936Z,36.98
2019-03-23T16:12:41.523Z,38.15
2019-03-23T16:15:12.081Z,36.90
2019-03-23T16:17:41.634Z,35.50
2019-03-23T16:20:12.478Z,33.42
2019-03-23T16:22:42.020Z,32.53
2019-03-23T16:25:12.302Z,35.03
2019-03-23T16:27:41.751Z,36.05
2019-03-23T16:30:14.107Z,37.85
2019-03-23T16:32:43.770Z,37.98
2019-03-23T16:35:13.238Z,36.63
2019-03-23T16:37:42.652Z,41.88
2019-03-23T16:40:12.377Z,36.85
2019-03-23T16:42:45.641Z,41.40
2019-03-23T16:45:13.150Z,42.70
2019-03-23T16:47:42.556Z,38.75
2019-03-23T16:50:13.211Z,40.12
2019-03-23T16:52:42.549Z,30.37
2019-03-23T16:55:12.053Z,27.25
2019-03-23T16:57:41.673Z,28.12
2019-03-23T17:00:13.267Z,24.70
2019-03-23T17:02:42.621Z,25.32
2019-03-23T17:05:12.173Z,24.95
2019-03-23T17:07:41.614Z,24.30
2019-03-23T17:10:12.349Z,24.82
2019-03-23T17:12:41.763Z,25.17
2019-03-23T17:15:11.274Z,26.35
2019-03-23T17:17:40.768Z,24.47
2019-03-23T17:20:11.010Z,25.62
2019-03-23T17:22:40.415Z,20.97
2019-03-23T17:25:10.909Z,23.70
2019-03-23T17:27:40.250Z,20.85
2019-03-23T17:30:10.642Z,19.60
2019-03-23T17:32:40.103Z,18.77
2019-03-23T17:35:09.826Z,17.77
2019-03-23T17:37:39.317Z,20.43
2019-03-23T17:40:09.646Z,19.05
2019-03-23T17:42:39.203Z,19.00
2019-03-23T17:45:08.661Z,19.62
2019-03-23T17:47:39.184Z,18.42
2019-03-23T17:50:08.839Z,21.85
2019-03-23T17:52:38.490Z,17.95
2019-03-23T17:55:08.996Z,19.23
2019-03-23T17:57:38.426Z,21.37
2019-03-23T18:00:12.101Z,17.15
2019-03-23T18:02:41.480Z,19.10
2019-03-23T18:05:12.209Z,19.67
2019-03-23T18:07:42.175Z,21.90
2019-03-23T18:10:11.934Z,19.32
2019-03-23T18:12:41.395Z,20.00
2019-03-23T18:15:12.977Z,20.37
2019-03-23T18:17:44.003Z,19.37
2019-03-23T18:20:15.035Z,19.95
2019-03-23T18:22:44.499Z,20.68
2019-03-23T18:25:14.044Z,20.77
2019-03-23T18:27:43.491Z,19.17
2019-03-23T18:30:39.378Z,19.65
2019-03-23T18:33:08.874Z,18.42
2019-03-23T18:35:38.411Z,21.93
2019-03-23T18:38:07.837Z,23.38
2019-03-23T18:40:37.777Z,23.35
2019-03-23T18:43:07.263Z,23.83
2019-03-23T18:45:36.765Z,25.23
2019-03-23T18:48:06.576Z,25.70
2019-03-23T18:50:37.110Z,27.07
2019-03-23T18:53:06.493Z,27.80
2019-03-23T18:55:36.036Z,29.52
2019-03-23T18:58:05.426Z,28.95
2019-03-23T19:00:37.600Z,31.82
2019-03-23T19:03:08.684Z,33.98
2019-03-23T19:05:38.057Z,35.00
2019-03-23T19:08:07.750Z,39.73
2019-03-23T19:10:37.253Z,34.67
2019-03-23T19:13:06.746Z,37.23
2019-03-23T19:15:36.160Z,35.40
2019-03-23T19:18:06.113Z,39.23
2019-03-23T19:20:36.203Z,43.17
2019-03-23T19:23:08.718Z,39.88
2019-03-23T19:25:38.110Z,43.90
2019-03-23T19:28:07.562Z,43.23
2019-03-23T19:30:37.057Z,42.67
2019-03-23T19:33:06.505Z,46.55
2019-03-23T19:35:37.099Z,48.80
2019-03-23T19:38:06.472Z,44.85
2019-03-23T19:40:35.821Z,50.73
2019-03-23T19:43:05.237Z,52.78
2019-03-23T19:45:34.648Z,48.30
2019-03-23T19:48:04.174Z,49.70
2019-03-23T19:50:33.581Z,48.65
2019-03-23T19:53:02.979Z,52.15
2019-03-23T19:55:32.409Z,51.77
2019-03-23T19:58:01.785Z,53.10
2019-03-23T20:00:31.212Z,47.78
2019-03-23T20:03:00.629Z,48.10
2019-03-23T20:05:30.021Z,50.35
2019-03-23T20:07:59.355Z,48.70
2019-03-23T20:10:28.866Z,51.68
2019-03-23T20:12:58.231Z,48.90
2019-03-23T20:15:27.661Z,52.25
2019-03-23T20:17:57.070Z,52.65
2019-03-23T20:20:26.411Z,52.48
2019-03-23T20:22:55.760Z,50.70
2019-03-23T20:25:26.234Z,51.08
2019-03-23T20:27:55.655Z,43.65
2019-03-23T20:30:25.006Z,47.23
2019-03-23T20:32:54.454Z,43.15
2019-03-23T20:35:23.866Z,45.38
2019-03-23T20:37:53.222Z,47.75
2019-03-23T20:40:22.664Z,45.80
2019-03-23T20:42:52.107Z,48.68
2019-03-23T20:45:27.212Z,48.33
2019-03-23T20:47:56.823Z,43.70
2019-03-23T20:50:26.235Z,47.00
2019-03-23T20:52:55.624Z,48.52
2019-03-23T20:55:27.229Z,47.17
2019-03-23T20:57:56.633Z,51.50
2019-03-23T21:00:26.054Z,46.35
2019-03-23T21:02:55.385Z,45.55
2019-03-23T21:05:33.080Z,49.35
2019-03-23T21:07:55.794Z,48.55
2019-03-23T21:10:25.283Z,48.52
2019-03-23T21:12:54.711Z,51.25
2019-03-23T21:15:24.468Z,50.55
2019-03-23T21:17:53.828Z,48.23
2019-03-23T21:20:23.190Z,49.27
2019-03-23T21:22:52.639Z,53.92
2019-03-23T21:25:23.087Z,51.88
2019-03-23T21:27:52.524Z,53.50
2019-03-23T21:30:22.344Z,48.98
2019-03-23T21:32:51.758Z,57.75
2019-03-23T21:35:21.187Z,56.02
2019-03-23T21:37:51.140Z,55.85
2019-03-23T21:40:20.910Z,55.10
2019-03-23T21:42:51.649Z,52.35
2019-03-23T21:45:21.108Z,55.33
2019-03-23T21:47:50.461Z,53.73
2019-03-23T21:50:19.876Z,52.73
2019-03-23T21:52:49.275Z,55.98
2019-03-23T21:55:18.660Z,51.58
2019-03-23T21:57:48.591Z,56.60
2019-03-23T22:00:35.130Z,52.55
2019-03-23T22:03:04.847Z,56.60
2019-03-23T22:05:34.226Z,53.13
2019-03-23T22:08:03.606Z,50.73
2019-03-23T22:10:33.042Z,52.25
2019-03-23T22:13:02.406Z,53.68
2019-03-23T22:15:33.232Z,49.83
2019-03-23T22:18:02.714Z,51.20
2019-03-23T22:20:32.204Z,52.35
2019-03-23T22:23:03.246Z,51.25
2019-03-23T22:25:47.183Z,54.95
2019-03-23T22:28:17.276Z,60.38
2019-03-23T22:30:46.655Z,57.35
2019-03-23T22:33:16.003Z,55.50
2019-03-23T22:35:45.412Z,56.25
2019-03-23T22:38:14.834Z,57.50
2019-03-23T22:40:44.162Z,58.23
2019-03-23T22:43:13.560Z,56.75
2019-03-23T22:45:42.918Z,55.10
2019-03-23T22:48:12.243Z,59.95
2019-03-23T22:50:41.587Z,62.85
2019-03-23T22:53:10.929Z,54.15
2019-03-23T22:55:40.341Z,60.92
2019-03-23T22:58:09.704Z,58.15
2019-03-23T23:00:43.926Z,61.48
2019-03-23T23:03:15.141Z,67.35
2019-03-23T23:05:45.032Z,60.83
2019-03-23T23:08:16.035Z,60.70
2019-03-23T23:10:45.349Z,59.67
2019-03-23T23:13:14.671Z,57.48
2019-03-23T23:15:44.058Z,58.60
2019-03-23T23:18:13.388Z,63.73
2019-03-23T23:21:04.610Z,62.10
2019-03-23T23:23:34.646Z,65.35
2019-03-23T23:26:04.051Z,58.00
2019-03-23T23:28:33.386Z,66.30
2019-03-23T23:31:02.710Z,57.08
2019-03-23T23:33:32.052Z,64.00
2019-03-23T23:36:01.505Z,67.45
2019-03-23T23:38:31.384Z,62.05
2019-03-23T23:41:01.478Z,69.15
2019-03-23T23:43:30.802Z,67.10
2019-03-23T23:46:00.167Z,63.08
2019-03-23T23:48:29.559Z,67.97
2019-03-23T23:50:58.896Z,65.75
2019-03-23T23:53:28.236Z,71.47
2019-03-23T23:55:57.647Z,72.05
2019-03-23T23:58:27.035Z,70.60
